createdAt,value
2018-06-11T00:00:12.600Z,22.02
2018-06-11T00:01:12.573Z,21.96
2018-06-11T00:02:12.550Z,21.95
2018-06-11T00:03:12.533Z,21.91
2018-06-11T00:04:12.503Z,21.99
2018-06-11T00:05:12.482Z,21.96
2018-06-11T00:06:12.463Z,22.10
2018-06-11T00:07:12.432Z,21.99
2018-06-11T00:08:12.413Z,22.02
2018-06-11T00:09:12.387Z,21.95
2018-06-11T00:10:12.361Z,21.99
2018-06-11T00:11:12.346Z,22.00
2018-06-11T00:12:12.316Z,21.99
2018-06-11T00:13:12.299Z,22.02
2018-06-11T00:14:12.273Z,21.95
2018-06-11T00:15:12.272Z,21.91
2018-06-11T00:16:12.229Z,21.79
2018-06-11T00:17:12.199Z,21.79
2018-06-11T00:18:12.177Z,21.72
2018-06-11T00:19:12.157Z,21.77
2018-06-11T00:20:12.130Z,21.76
2018-06-11T00:21:12.110Z,21.80
2018-06-11T00:22:12.085Z,21.77
2018-06-11T00:23:12.067Z,21.76
2018-06-11T00:24:12.041Z,21.72
2018-06-11T00:25:12.012Z,21.67
2018-06-11T00:26:11.995Z,21.76
2018-06-11T00:27:11.967Z,21.73
2018-06-11T00:28:11.943Z,21.75
2018-06-11T00:29:11.922Z,21.76
2018-06-11T00:30:11.894Z,21.64
2018-06-11T00:31:11.876Z,21.61
2018-06-11T00:32:11.855Z,21.45
2018-06-11T00:33:11.829Z,21.51
2018-06-11T00:34:11.809Z,21.46
2018-06-11T00:35:11.778Z,21.45
2018-06-11T00:36:11.758Z,21.42
2018-06-11T00:37:11.739Z,21.54
2018-06-11T00:38:11.708Z,21.55
2018-06-11T00:39:11.682Z,21.48
2018-06-11T00:40:11.657Z,21.52
2018-06-11T00:41:11.642Z,21.45
2018-06-11T00:42:11.611Z,21.39
2018-06-11T00:43:11.598Z,21.50
2018-06-11T00:44:11.571Z,21.46
2018-06-11T00:45:11.545Z,21.39
2018-06-11T00:46:11.524Z,21.50
2018-06-11T00:47:11.497Z,21.48
2018-06-11T00:48:11.481Z,21.48
2018-06-11T00:49:11.459Z,21.52
2018-06-11T00:50:11.432Z,21.45
2018-06-11T00:51:11.402Z,21.42
2018-06-11T00:52:11.383Z,21.48
2018-06-11T00:53:11.358Z,21.50
2018-06-11T00:54:11.336Z,21.48
2018-06-11T00:55:13.170Z,21.50
2018-06-11T00:56:11.286Z,21.45
2018-06-11T00:57:11.264Z,21.45
2018-06-11T00:58:11.243Z,21.48
2018-06-11T00:59:11.219Z,21.48
2018-06-11T01:00:11.191Z,21.50
2018-06-11T01:01:11.176Z,21.46
2018-06-11T01:02:11.149Z,21.45
2018-06-11T01:03:11.122Z,21.51
2018-06-11T01:04:11.106Z,21.45
2018-06-11T01:05:11.073Z,21.45
2018-06-11T01:06:11.053Z,21.35
2018-06-11T01:07:11.034Z,21.27
2018-06-11T01:08:11.002Z,21.32
2018-06-11T01:09:10.988Z,21.39
2018-06-11T01:10:10.958Z,21.35
2018-06-11T01:11:10.940Z,21.36
2018-06-11T01:12:10.917Z,21.36
2018-06-11T01:13:10.891Z,21.33
2018-06-11T01:14:10.865Z,21.30
2018-06-11T01:15:10.840Z,21.36
2018-06-11T01:16:10.821Z,21.35
2018-06-11T01:17:10.790Z,21.35
2018-06-11T01:18:10.774Z,21.35
2018-06-11T01:19:10.749Z,21.35
2018-06-11T01:20:10.718Z,21.39
2018-06-11T01:21:10.704Z,21.30
2018-06-11T01:22:10.679Z,21.42
2018-06-11T01:23:10.652Z,21.33
2018-06-11T01:24:10.627Z,21.45
2018-06-11T01:25:10.606Z,21.40
2018-06-11T01:26:10.581Z,21.37
2018-06-11T01:27:10.558Z,21.36
2018-06-11T01:28:10.538Z,21.36
2018-06-11T01:29:10.516Z,21.42
2018-06-11T01:30:10.491Z,21.36
2018-06-11T01:31:10.464Z,21.33
2018-06-11T01:32:10.445Z,21.43
2018-06-11T01:33:10.417Z,21.45
2018-06-11T01:34:10.398Z,21.27
2018-06-11T01:35:10.368Z,21.27
2018-06-11T01:36:10.350Z,21.27
2018-06-11T01:37:10.323Z,21.22
2018-06-11T01:38:10.298Z,21.27
2018-06-11T01:39:10.279Z,21.17
2018-06-11T01:40:10.254Z,21.21
2018-06-11T01:41:10.229Z,21.18
2018-06-11T01:42:10.209Z,21.06
2018-06-11T01:43:10.188Z,21.11
2018-06-11T01:44:10.157Z,21.17
2018-06-11T01:45:10.131Z,21.20
2018-06-11T01:46:10.112Z,21.20
2018-06-11T01:47:10.091Z,21.27
2018-06-11T01:48:10.117Z,21.24
2018-06-11T01:49:10.040Z,21.21
2018-06-11T01:50:10.015Z,21.30
2018-06-11T01:51:09.996Z,21.27
2018-06-11T01:52:09.971Z,21.27
2018-06-11T01:53:09.946Z,21.30
2018-06-11T01:54:09.926Z,21.30
2018-06-11T01:55:09.904Z,21.25
2018-06-11T01:56:09.895Z,21.27
2018-06-11T01:57:09.849Z,21.17
2018-06-11T01:58:09.833Z,21.14
2018-06-11T01:59:09.806Z,21.06
2018-06-11T02:00:09.775Z,20.99
2018-06-11T02:01:09.756Z,20.99
2018-06-11T02:02:09.732Z,21.06
2018-06-11T02:03:09.714Z,20.95
2018-06-11T02:04:09.697Z,21.05
2018-06-11T02:05:09.660Z,21.02
2018-06-11T02:06:09.641Z,21.09
2018-06-11T02:07:09.614Z,21.09
2018-06-11T02:08:09.600Z,21.03
2018-06-11T02:09:09.566Z,20.96
2018-06-11T02:10:09.550Z,20.96
2018-06-11T02:11:09.516Z,20.95
2018-06-11T02:12:09.501Z,20.95
2018-06-11T02:13:09.474Z,21.05
2018-06-11T02:14:09.446Z,21.03
2018-06-11T02:15:09.431Z,21.05
2018-06-11T02:16:09.401Z,21.03
2018-06-11T02:17:09.382Z,20.95
2018-06-11T02:18:09.361Z,20.99
2018-06-11T02:19:09.329Z,20.99
2018-06-11T02:20:09.306Z,20.97
2018-06-11T02:21:09.286Z,20.93
2018-06-11T02:22:09.261Z,21.05
2018-06-11T02:23:09.243Z,21.05
2018-06-11T02:24:09.215Z,20.92
2018-06-11T02:25:09.188Z,20.99
2018-06-11T02:26:09.163Z,20.92
2018-06-11T02:27:09.146Z,21.06
2018-06-11T02:28:09.121Z,21.03
2018-06-11T02:29:09.091Z,20.96
2018-06-11T02:30:09.076Z,21.03
2018-06-11T02:31:09.053Z,21.02
2018-06-11T02:32:09.018Z,21.05
2018-06-11T02:33:09.006Z,21.00
2018-06-11T02:34:08.974Z,21.00
2018-06-11T02:35:08.958Z,20.97
2018-06-11T02:36:08.933Z,21.07
2018-06-11T02:37:08.904Z,21.07
2018-06-11T02:38:08.877Z,21.21
2018-06-11T02:39:08.863Z,21.05
2018-06-11T02:40:08.837Z,21.03
2018-06-11T02:41:08.813Z,21.02
2018-06-11T02:42:08.813Z,21.02
2018-06-11T02:43:08.766Z,20.99
2018-06-11T02:44:08.742Z,20.99
2018-06-11T02:45:08.718Z,21.07
2018-06-11T02:46:08.696Z,21.15
2018-06-11T02:47:08.673Z,21.18
2018-06-11T02:48:08.644Z,21.17
2018-06-11T02:49:08.622Z,21.17
2018-06-11T02:50:08.598Z,21.06
2018-06-11T02:51:08.575Z,21.07
2018-06-11T02:52:08.549Z,21.07
2018-06-11T02:53:08.530Z,21.06
2018-06-11T02:54:08.507Z,21.06
2018-06-11T02:55:08.480Z,21.12
2018-06-11T02:56:08.456Z,20.99
2018-06-11T02:57:08.431Z,21.09
2018-06-11T02:58:08.416Z,21.03
2018-06-11T02:59:08.382Z,21.07
2018-06-11T03:00:08.372Z,21.09
2018-06-11T03:01:08.401Z,21.07
2018-06-11T03:02:08.317Z,21.06
2018-06-11T03:03:08.291Z,21.06
2018-06-11T03:04:08.267Z,21.05
2018-06-11T03:05:08.253Z,21.07
2018-06-11T03:06:08.214Z,21.00
2018-06-11T03:07:08.199Z,20.99
2018-06-11T03:08:08.177Z,21.05
2018-06-11T03:09:08.151Z,20.95
2018-06-11T03:10:08.123Z,20.85
2018-06-11T03:11:08.104Z,20.87
2018-06-11T03:12:08.089Z,20.78
2018-06-11T03:13:08.049Z,20.81
2018-06-11T03:14:08.032Z,20.85
2018-06-11T03:15:08.029Z,20.87
2018-06-11T03:16:07.983Z,20.92
2018-06-11T03:17:07.955Z,20.90
2018-06-11T03:18:07.928Z,21.02
2018-06-11T03:19:07.914Z,21.02
2018-06-11T03:20:07.886Z,21.02
2018-06-11T03:21:07.866Z,21.07
2018-06-11T03:22:07.842Z,21.03
2018-06-11T03:23:07.810Z,21.12
2018-06-11T03:24:07.795Z,21.11
2018-06-11T03:25:07.764Z,21.06
2018-06-11T03:26:07.743Z,21.05
2018-06-11T03:27:07.726Z,21.07
2018-06-11T03:28:07.691Z,21.03
2018-06-11T03:29:07.680Z,21.07
2018-06-11T03:30:07.650Z,21.15
2018-06-11T03:31:07.624Z,21.02
2018-06-11T03:32:07.605Z,21.14
2018-06-11T03:33:07.573Z,21.17
2018-06-11T03:34:07.557Z,21.21
2018-06-11T03:35:07.531Z,21.18
2018-06-11T03:36:07.505Z,21.32
2018-06-11T03:37:07.490Z,21.21
2018-06-11T03:38:07.455Z,21.17
2018-06-11T03:39:07.439Z,21.17
2018-06-11T03:40:07.426Z,21.17
2018-06-11T03:41:07.386Z,21.21
2018-06-11T03:42:07.369Z,21.15
2018-06-11T03:43:07.339Z,21.20
2018-06-11T03:44:07.314Z,21.25
2018-06-11T03:45:07.292Z,21.21
2018-06-11T03:46:07.266Z,21.21
2018-06-11T03:47:07.248Z,21.20
2018-06-11T03:48:07.228Z,21.14
2018-06-11T03:49:07.192Z,21.12
2018-06-11T03:50:07.174Z,21.06
2018-06-11T03:51:07.152Z,21.18
2018-06-11T03:52:07.134Z,21.09
2018-06-11T03:53:07.106Z,21.07
2018-06-11T03:54:07.080Z,21.06
2018-06-11T03:55:07.054Z,21.15
2018-06-11T03:56:07.031Z,21.07
2018-06-11T03:57:07.005Z,21.03
2018-06-11T03:58:06.984Z,21.07
2018-06-11T03:59:06.964Z,21.11
2018-06-11T04:00:06.937Z,21.14
2018-06-11T04:01:06.913Z,21.17
2018-06-11T04:02:06.889Z,21.22
2018-06-11T04:03:06.871Z,21.14
2018-06-11T04:04:06.844Z,21.09
2018-06-11T04:05:06.815Z,21.06
2018-06-11T04:06:06.795Z,21.12
2018-06-11T04:07:06.772Z,21.02
2018-06-11T04:08:06.745Z,21.20
2018-06-11T04:09:06.725Z,21.15
2018-06-11T04:10:06.699Z,21.15
2018-06-11T04:11:06.847Z,21.11
2018-06-11T04:12:06.650Z,21.07
2018-06-11T04:13:06.625Z,21.12
2018-06-11T04:14:06.604Z,21.12
2018-06-11T04:15:06.577Z,21.06
2018-06-11T04:16:06.553Z,21.15
2018-06-11T04:17:06.538Z,21.20
2018-06-11T04:18:06.512Z,21.15
2018-06-11T04:19:06.486Z,21.22
2018-06-11T04:20:06.460Z,21.29
2018-06-11T04:21:06.445Z,21.35
2018-06-11T04:22:06.414Z,21.39
2018-06-11T04:23:06.394Z,21.30
2018-06-11T04:24:06.367Z,21.21
2018-06-11T04:25:06.341Z,21.27
2018-06-11T04:26:06.322Z,21.25
2018-06-11T04:27:06.297Z,21.24
2018-06-11T04:28:06.275Z,21.27
2018-06-11T04:29:06.257Z,21.25
2018-06-11T04:30:06.240Z,21.27
2018-06-11T04:31:06.208Z,21.24
2018-06-11T04:32:06.183Z,21.21
2018-06-11T04:33:06.151Z,21.29
2018-06-11T04:34:06.131Z,21.25
2018-06-11T04:35:06.103Z,21.24
2018-06-11T04:36:06.079Z,21.21
2018-06-11T04:37:06.065Z,21.29
2018-06-11T04:38:06.038Z,21.17
2018-06-11T04:39:06.017Z,21.29
2018-06-11T04:40:05.992Z,21.29
2018-06-11T04:41:05.965Z,21.20
2018-06-11T04:42:05.941Z,21.29
2018-06-11T04:43:05.920Z,21.25
2018-06-11T04:44:05.899Z,21.27
2018-06-11T04:45:05.872Z,21.30
2018-06-11T04:46:05.853Z,21.24
2018-06-11T04:47:05.819Z,21.32
2018-06-11T04:48:05.801Z,21.33
2018-06-11T04:49:05.774Z,21.35
2018-06-11T04:50:05.756Z,21.35
2018-06-11T04:51:05.733Z,21.35
2018-06-11T04:52:05.705Z,21.29
2018-06-11T04:53:05.682Z,21.27
2018-06-11T04:54:05.663Z,21.33
2018-06-11T04:55:05.649Z,21.36
2018-06-11T04:56:05.613Z,21.36
2018-06-11T04:57:05.587Z,21.36
2018-06-11T04:58:05.562Z,21.33
2018-06-11T04:59:05.545Z,21.32
2018-06-11T05:00:05.517Z,21.35
2018-06-11T05:01:05.490Z,21.37
2018-06-11T05:02:05.466Z,21.48
2018-06-11T05:03:05.451Z,21.48
2018-06-11T05:04:05.419Z,21.42
2018-06-11T05:05:05.424Z,21.46
2018-06-11T05:06:05.386Z,21.45
2018-06-11T05:07:05.347Z,21.48
2018-06-11T05:08:05.345Z,21.45
2018-06-11T05:09:05.310Z,21.43
2018-06-11T05:10:05.297Z,21.42
2018-06-11T05:11:05.257Z,21.46
2018-06-11T05:12:05.238Z,21.48
2018-06-11T05:13:05.207Z,21.45
2018-06-11T05:14:05.186Z,21.46
2018-06-11T05:15:05.170Z,21.43
2018-06-11T05:16:05.140Z,21.50
2018-06-11T05:17:05.136Z,21.54
2018-06-11T05:18:05.092Z,21.40
2018-06-11T05:19:05.068Z,21.48
2018-06-11T05:20:05.062Z,21.51
2018-06-11T05:21:05.026Z,21.37
2018-06-11T05:22:04.999Z,21.51
2018-06-11T05:23:04.973Z,21.51
2018-06-11T05:24:04.955Z,21.48
2018-06-11T05:25:04.925Z,21.46
2018-06-11T05:26:04.907Z,21.42
2018-06-11T05:27:04.880Z,21.55
2018-06-11T05:28:04.853Z,21.45
2018-06-11T05:29:04.839Z,21.42
2018-06-11T05:30:04.807Z,21.52
2018-06-11T05:31:04.796Z,21.45
2018-06-11T05:32:04.764Z,21.50
2018-06-11T05:33:04.745Z,21.40
2018-06-11T05:34:04.718Z,21.40
2018-06-11T05:35:04.695Z,21.50
2018-06-11T05:36:04.668Z,21.48
2018-06-11T05:37:04.666Z,21.51
2018-06-11T05:38:04.658Z,21.52
2018-06-11T05:39:04.615Z,21.61
2018-06-11T05:40:04.569Z,21.58
2018-06-11T05:41:04.559Z,21.66
2018-06-11T05:42:04.530Z,21.58
2018-06-11T05:43:04.503Z,21.64
2018-06-11T05:44:04.483Z,21.67
2018-06-11T05:45:04.452Z,21.60
2018-06-11T05:46:04.434Z,21.62
2018-06-11T05:47:04.410Z,21.70
2018-06-11T05:48:04.391Z,21.72
2018-06-11T05:49:04.364Z,21.73
2018-06-11T05:50:04.343Z,21.69
2018-06-11T05:51:04.313Z,21.69
2018-06-11T05:52:04.292Z,21.66
2018-06-11T05:53:04.265Z,21.60
2018-06-11T05:54:04.247Z,21.61
2018-06-11T05:55:04.238Z,21.61
2018-06-11T05:56:04.204Z,21.64
2018-06-11T05:57:04.172Z,21.62
2018-06-11T05:58:04.148Z,21.64
2018-06-11T05:59:04.128Z,21.77
2018-06-11T06:00:04.100Z,21.76
2018-06-11T06:01:04.106Z,21.76
2018-06-11T06:02:04.059Z,21.77
2018-06-11T06:03:04.031Z,21.80
2018-06-11T06:04:04.018Z,21.77
2018-06-11T06:05:04.002Z,21.80
2018-06-11T06:06:03.960Z,21.85
2018-06-11T06:07:03.947Z,21.95
2018-06-11T06:08:03.916Z,22.00
2018-06-11T06:09:03.896Z,21.98
2018-06-11T06:10:03.879Z,21.95
2018-06-11T06:11:03.848Z,21.96
2018-06-11T06:12:03.822Z,21.92
2018-06-11T06:13:03.799Z,21.91
2018-06-11T06:14:03.777Z,22.00
2018-06-11T06:15:03.751Z,22.20
2018-06-11T06:16:03.726Z,22.26
2018-06-11T06:17:03.708Z,22.22
2018-06-11T06:18:03.683Z,22.26
2018-06-11T06:19:03.661Z,22.33
2018-06-11T06:20:03.637Z,22.33
2018-06-11T06:21:03.606Z,22.32
2018-06-11T06:22:03.594Z,22.35
2018-06-11T06:23:03.563Z,22.38
2018-06-11T06:24:03.540Z,22.35
2018-06-11T06:25:03.522Z,22.43
2018-06-11T06:26:03.493Z,22.44
2018-06-11T06:27:03.478Z,22.38
2018-06-11T06:28:03.455Z,22.33
2018-06-11T06:29:03.426Z,22.36
2018-06-11T06:30:03.406Z,22.55
2018-06-11T06:31:03.381Z,22.59
2018-06-11T06:32:03.358Z,22.66
2018-06-11T06:33:03.330Z,22.69
2018-06-11T06:34:03.352Z,22.68
2018-06-11T06:35:03.286Z,22.63
2018-06-11T06:36:03.266Z,22.65
2018-06-11T06:37:03.263Z,22.70
2018-06-11T06:38:03.212Z,22.72
2018-06-11T06:39:03.204Z,22.78
2018-06-11T06:40:03.185Z,22.84
2018-06-11T06:41:03.149Z,22.83
2018-06-11T06:42:03.127Z,22.81
2018-06-11T06:43:03.101Z,22.88
2018-06-11T06:44:03.076Z,22.78
2018-06-11T06:45:03.064Z,22.83
2018-06-11T06:46:03.100Z,22.83
2018-06-11T06:47:03.013Z,22.83
2018-06-11T06:48:02.990Z,22.78
2018-06-11T06:49:02.958Z,22.81
2018-06-11T06:50:02.947Z,22.81
2018-06-11T06:51:02.913Z,22.94
2018-06-11T06:52:02.901Z,23.03
2018-06-11T06:53:02.872Z,23.12
2018-06-11T06:54:02.849Z,23.15
2018-06-11T06:55:02.831Z,23.18
2018-06-11T06:56:02.805Z,22.99
2018-06-11T06:57:02.778Z,22.84
2018-06-11T06:58:02.753Z,22.88
2018-06-11T06:59:02.786Z,22.88
2018-06-11T07:00:02.709Z,22.80
2018-06-11T07:01:02.693Z,22.80
2018-06-11T07:02:02.669Z,22.69
2018-06-11T07:03:02.655Z,22.75
2018-06-11T07:04:02.621Z,22.75
2018-06-11T07:05:02.595Z,22.75
2018-06-11T07:06:02.569Z,22.84
2018-06-11T07:07:02.556Z,22.75
2018-06-11T07:08:02.552Z,22.70
2018-06-11T07:09:02.503Z,22.73
2018-06-11T07:10:02.482Z,22.73
2018-06-11T07:11:02.458Z,22.80
2018-06-11T07:12:02.432Z,22.80
2018-06-11T07:13:02.416Z,22.78
2018-06-11T07:14:02.394Z,22.80
2018-06-11T07:15:02.363Z,22.85
2018-06-11T07:16:02.348Z,22.84
2018-06-11T07:17:02.319Z,23.02
2018-06-11T07:18:02.299Z,23.03
2018-06-11T07:19:02.278Z,23.02
2018-06-11T07:20:02.249Z,23.06
2018-06-11T07:21:02.232Z,22.99
2018-06-11T07:22:02.205Z,22.85
2018-06-11T07:23:02.184Z,22.78
2018-06-11T07:24:02.167Z,22.83
2018-06-11T07:25:02.137Z,22.78
2018-06-11T07:26:02.113Z,22.87
2018-06-11T07:27:02.126Z,22.93
2018-06-11T07:28:02.063Z,22.76
2018-06-11T07:29:02.049Z,22.84
2018-06-11T07:30:02.018Z,22.84
2018-06-11T07:31:02.009Z,22.83
2018-06-11T07:32:01.979Z,22.75
2018-06-11T07:33:01.951Z,22.85
2018-06-11T07:34:01.935Z,22.75
2018-06-11T07:35:01.907Z,22.65
2018-06-11T07:36:01.885Z,22.62
2018-06-11T07:37:01.868Z,22.62
2018-06-11T07:38:01.840Z,22.44
2018-06-11T07:39:01.818Z,22.54
2018-06-11T07:40:01.798Z,22.43
2018-06-11T07:41:01.830Z,22.35
2018-06-11T07:42:01.748Z,22.41
2018-06-11T07:43:01.768Z,22.41
2018-06-11T07:44:01.697Z,22.36
2018-06-11T07:45:01.677Z,22.36
2018-06-11T07:46:01.652Z,22.33
2018-06-11T07:47:01.627Z,22.28
2018-06-11T07:48:01.663Z,22.39
2018-06-11T07:49:01.581Z,22.39
2018-06-11T07:50:01.560Z,22.44
2018-06-11T07:51:01.542Z,22.45
2018-06-11T07:52:01.514Z,22.48
2018-06-11T07:53:01.493Z,22.53
2018-06-11T07:54:01.474Z,22.55
2018-06-11T07:55:01.441Z,22.59
2018-06-11T07:56:01.427Z,22.60
2018-06-11T07:57:01.416Z,22.75
2018-06-11T07:58:01.380Z,22.75
2018-06-11T07:59:01.350Z,22.70
2018-06-11T08:00:01.400Z,22.72
2018-06-11T08:01:01.311Z,22.72
2018-06-11T08:02:01.286Z,22.78
2018-06-11T08:03:01.262Z,22.83
2018-06-11T08:04:01.242Z,22.87
2018-06-11T08:05:01.247Z,22.81
2018-06-11T08:06:01.192Z,22.83
2018-06-11T08:07:01.167Z,22.88
2018-06-11T08:08:01.144Z,22.99
2018-06-11T08:09:01.122Z,22.99
2018-06-11T08:10:01.098Z,22.96
2018-06-11T08:11:01.078Z,22.91
2018-06-11T08:12:01.057Z,22.98
2018-06-11T08:13:01.031Z,22.94
2018-06-11T08:14:01.008Z,22.87
2018-06-11T08:15:00.987Z,22.87
2018-06-11T08:16:00.963Z,22.81
2018-06-11T08:17:00.937Z,22.90
2018-06-11T08:18:00.911Z,22.81
2018-06-11T08:19:00.890Z,22.85
2018-06-11T08:20:00.868Z,22.83
2018-06-11T08:21:00.849Z,22.75
2018-06-11T08:22:00.829Z,22.84
2018-06-11T08:23:00.798Z,22.84
2018-06-11T08:24:00.779Z,22.85
2018-06-11T08:25:00.755Z,22.90
2018-06-11T08:26:00.728Z,23.03
2018-06-11T08:27:00.715Z,23.21
2018-06-11T08:28:00.688Z,23.17
2018-06-11T08:29:00.671Z,23.37
2018-06-11T08:30:00.639Z,23.40
2018-06-11T08:31:00.615Z,23.41
2018-06-11T08:32:00.598Z,23.51
2018-06-11T08:33:00.568Z,23.28
2018-06-11T08:34:00.554Z,23.36
2018-06-11T08:35:00.526Z,23.37
2018-06-11T08:36:00.502Z,23.44
2018-06-11T08:37:00.485Z,23.51
2018-06-11T08:38:00.459Z,23.43
2018-06-11T08:39:00.444Z,23.50
2018-06-11T08:40:00.420Z,23.59
2018-06-11T08:41:00.387Z,23.56
2018-06-11T08:42:00.365Z,23.59
2018-06-11T08:43:00.345Z,23.69
2018-06-11T08:44:00.328Z,23.87
2018-06-11T08:45:00.293Z,23.83
2018-06-11T08:46:00.274Z,23.95
2018-06-11T08:47:00.255Z,23.83
2018-06-11T08:48:00.226Z,23.77
2018-06-11T08:49:00.212Z,23.78
2018-06-11T08:50:00.229Z,23.83
2018-06-11T08:51:00.164Z,23.87
2018-06-11T08:52:00.138Z,23.93
2018-06-11T08:53:00.119Z,23.96
2018-06-11T08:54:00.098Z,23.98
2018-06-11T08:55:00.071Z,24.14
2018-06-11T08:56:00.053Z,24.29
2018-06-11T08:57:00.026Z,24.36
2018-06-11T08:57:59.999Z,24.39
2018-06-11T08:58:59.986Z,24.45
2018-06-11T08:59:59.960Z,24.54
2018-06-11T09:00:59.933Z,24.58
2018-06-11T09:01:59.915Z,24.48
2018-06-11T09:02:59.898Z,24.43
2018-06-11T09:03:59.866Z,24.43
2018-06-11T09:04:59.847Z,24.42
2018-06-11T09:05:59.861Z,24.45
2018-06-11T09:06:59.834Z,24.35
2018-06-11T09:07:59.775Z,24.45
2018-06-11T09:08:59.763Z,24.39
2018-06-11T09:09:59.730Z,24.39
2018-06-11T09:10:59.719Z,24.36
2018-06-11T09:11:59.694Z,24.40
2018-06-11T09:12:59.661Z,24.55
2018-06-11T09:13:59.651Z,24.55
2018-06-11T09:14:59.620Z,24.58
2018-06-11T09:15:59.605Z,24.57
2018-06-11T09:16:59.579Z,24.53
2018-06-11T09:17:59.598Z,24.48
2018-06-11T09:18:59.535Z,24.66
2018-06-11T09:19:59.513Z,24.65
2018-06-11T09:20:59.488Z,24.65
2018-06-11T09:21:59.464Z,24.66
2018-06-11T09:22:59.452Z,24.80
2018-06-11T09:23:59.419Z,24.84
2018-06-11T09:24:59.437Z,24.76
2018-06-11T09:25:59.386Z,24.85
2018-06-11T09:26:59.351Z,24.80
2018-06-11T09:27:59.343Z,24.85
2018-06-11T09:28:59.311Z,24.78
2018-06-11T09:29:59.285Z,24.91
2018-06-11T09:31:00.364Z,24.80
2018-06-11T09:31:59.248Z,24.78
2018-06-11T09:32:59.227Z,24.78
2018-06-11T09:33:59.198Z,24.63
2018-06-11T09:34:59.185Z,24.73
2018-06-11T09:35:59.169Z,24.85
2018-06-11T09:36:59.130Z,24.73
2018-06-11T09:37:59.153Z,24.91
2018-06-11T09:38:59.085Z,24.98
2018-06-11T09:39:59.077Z,24.81
2018-06-11T09:40:59.042Z,24.78
2018-06-11T09:41:59.021Z,24.76
2018-06-11T09:42:59.006Z,24.63
2018-06-11T09:43:59.070Z,24.69
2018-06-11T09:44:58.958Z,24.65
2018-06-11T09:45:58.939Z,24.69
2018-06-11T09:46:58.913Z,24.77
2018-06-11T09:47:58.889Z,24.80
2018-06-11T09:48:58.868Z,25.07
2018-06-11T09:49:58.843Z,25.16
2018-06-11T09:50:58.825Z,24.98
2018-06-11T09:51:58.798Z,24.95
2018-06-11T09:52:58.783Z,24.93
2018-06-11T09:53:58.754Z,25.01
2018-06-11T09:54:58.735Z,25.03
2018-06-11T09:55:58.749Z,24.92
2018-06-11T09:56:58.685Z,24.81
2018-06-11T09:57:58.671Z,24.70
2018-06-11T09:58:58.642Z,24.86
2018-06-11T09:59:58.620Z,24.68
2018-06-11T10:00:58.606Z,24.81
2018-06-11T10:01:58.579Z,24.80
2018-06-11T10:02:58.561Z,24.80
2018-06-11T10:03:58.552Z,24.88
2018-06-11T10:04:58.535Z,24.78
2018-06-11T10:05:58.492Z,24.78
2018-06-11T10:06:58.467Z,24.63
2018-06-11T10:07:58.443Z,24.74
2018-06-11T10:08:58.426Z,24.77
2018-06-11T10:09:58.407Z,24.76
2018-06-11T10:10:58.380Z,24.43
2018-06-11T10:11:58.359Z,24.33
2018-06-11T10:12:58.332Z,24.35
2018-06-11T10:13:58.314Z,24.23
2018-06-11T10:14:58.301Z,24.16
2018-06-11T10:15:58.263Z,24.14
2018-06-11T10:16:58.247Z,24.17
2018-06-11T10:17:58.221Z,24.21
2018-06-11T10:18:58.200Z,24.21
2018-06-11T10:19:58.180Z,24.40
2018-06-11T10:20:58.156Z,24.35
2018-06-11T10:21:58.137Z,24.39
2018-06-11T10:22:58.105Z,24.42
2018-06-11T10:23:58.083Z,24.47
2018-06-11T10:24:58.155Z,24.51
2018-06-11T10:25:58.038Z,24.54
2018-06-11T10:26:58.018Z,24.60
2018-06-11T10:27:57.998Z,24.66
2018-06-11T10:28:57.971Z,24.78
2018-06-11T10:29:57.948Z,24.69
2018-06-11T10:30:57.930Z,24.80
2018-06-11T10:31:57.950Z,24.80
2018-06-11T10:32:57.920Z,24.91
2018-06-11T10:33:57.861Z,24.78
2018-06-11T10:34:57.837Z,24.73
2018-06-11T10:35:57.844Z,24.77
2018-06-11T10:36:57.800Z,24.78
2018-06-11T10:37:57.776Z,24.81
2018-06-11T10:38:57.746Z,24.78
2018-06-11T10:39:57.724Z,24.66
2018-06-11T10:40:57.716Z,24.76
2018-06-11T10:41:57.680Z,24.66
2018-06-11T10:42:57.656Z,24.65
2018-06-11T10:43:57.665Z,24.73
2018-06-11T10:44:57.627Z,24.66
2018-06-11T10:45:57.633Z,24.85
2018-06-11T10:46:57.603Z,24.78
2018-06-11T10:47:57.550Z,24.93
2018-06-11T10:48:57.520Z,24.95
2018-06-11T10:49:57.513Z,24.73
2018-06-11T10:50:57.487Z,24.69
2018-06-11T10:51:57.463Z,24.69
2018-06-11T10:52:57.443Z,24.74
2018-06-11T10:53:57.421Z,24.77
2018-06-11T10:54:57.392Z,24.78
2018-06-11T10:55:57.370Z,24.81
2018-06-11T10:56:57.402Z,24.84
2018-06-11T10:57:57.438Z,24.91
2018-06-11T10:58:57.490Z,24.85
2018-06-11T10:59:57.370Z,24.85
2018-06-11T11:00:57.424Z,24.85
2018-06-11T11:01:57.330Z,24.80
2018-06-11T11:02:57.350Z,24.77
2018-06-11T11:03:57.194Z,24.77
2018-06-11T11:04:57.368Z,24.76
2018-06-11T11:05:57.149Z,24.81
2018-06-11T11:06:57.182Z,24.88
2018-06-11T11:07:57.215Z,24.66
2018-06-11T11:08:57.222Z,24.76
2018-06-11T11:09:57.073Z,24.74
2018-06-11T11:10:57.224Z,24.74
2018-06-11T11:11:57.025Z,24.76
2018-06-11T11:12:57.237Z,24.88
2018-06-11T11:13:58.414Z,24.91
2018-06-11T11:14:57.037Z,24.86
2018-06-11T11:15:57.037Z,24.91
2018-06-11T11:16:56.910Z,25.01
2018-06-11T11:17:57.035Z,24.99
2018-06-11T11:18:56.872Z,25.14
2018-06-11T11:19:56.901Z,25.03
2018-06-11T11:20:56.825Z,25.18
2018-06-11T11:21:56.797Z,25.13
2018-06-11T11:22:56.767Z,25.18
2018-06-11T11:23:56.773Z,25.18
2018-06-11T11:24:56.742Z,25.23
2018-06-11T11:25:56.708Z,25.31
2018-06-11T11:26:56.677Z,25.40
2018-06-11T11:27:56.655Z,25.44
2018-06-11T11:28:56.629Z,25.43
2018-06-11T11:29:56.605Z,25.31
2018-06-11T11:30:56.591Z,25.28
2018-06-11T11:31:56.564Z,25.23
2018-06-11T11:32:56.547Z,25.28
2018-06-11T11:33:56.519Z,25.26
2018-06-11T11:34:56.500Z,25.22
2018-06-11T11:35:56.485Z,25.26
2018-06-11T11:36:56.451Z,25.17
2018-06-11T11:37:56.436Z,25.23
2018-06-11T11:38:56.412Z,25.29
2018-06-11T11:39:56.393Z,25.25
2018-06-11T11:40:56.385Z,25.29
2018-06-11T11:41:56.354Z,25.17
2018-06-11T11:42:56.325Z,25.22
2018-06-11T11:43:56.304Z,25.14
2018-06-11T11:44:56.272Z,25.14
2018-06-11T11:45:56.252Z,25.23
2018-06-11T11:46:56.235Z,25.13
2018-06-11T11:47:56.210Z,25.23
2018-06-11T11:48:56.188Z,25.22
2018-06-11T11:49:56.162Z,25.35
2018-06-11T11:50:56.149Z,25.32
2018-06-11T11:51:56.121Z,25.43
2018-06-11T11:52:56.103Z,25.44
2018-06-11T11:53:56.080Z,25.47
2018-06-11T11:54:56.072Z,25.38
2018-06-11T11:55:56.043Z,25.36
2018-06-11T11:56:56.043Z,25.47
2018-06-11T11:57:56.013Z,25.44
2018-06-11T11:58:55.999Z,25.50
2018-06-11T11:59:55.940Z,25.60
2018-06-11T12:00:55.994Z,25.65
2018-06-11T12:01:55.900Z,25.55
2018-06-11T12:02:55.886Z,25.66
2018-06-11T12:03:55.860Z,25.55
2018-06-11T12:04:55.836Z,25.51
2018-06-11T12:05:55.818Z,25.40
2018-06-11T12:06:55.789Z,25.50
2018-06-11T12:07:55.766Z,25.46
2018-06-11T12:08:55.749Z,25.59
2018-06-11T12:09:55.724Z,25.59
2018-06-11T12:10:55.705Z,25.40
2018-06-11T12:11:55.680Z,25.51
2018-06-11T12:12:55.676Z,25.44
2018-06-11T12:13:55.637Z,25.55
2018-06-11T12:14:55.609Z,25.66
2018-06-11T12:15:55.590Z,25.54
2018-06-11T12:16:55.573Z,25.63
2018-06-11T12:17:55.545Z,25.58
2018-06-11T12:18:55.526Z,25.43
2018-06-11T12:19:55.500Z,25.51
2018-06-11T12:20:55.483Z,25.59
2018-06-11T12:21:55.466Z,25.59
2018-06-11T12:22:55.442Z,25.60
2018-06-11T12:23:55.419Z,25.54
2018-06-11T12:24:55.389Z,25.62
2018-06-11T12:25:55.366Z,25.55
2018-06-11T12:26:55.355Z,25.58
2018-06-11T12:27:55.321Z,25.70
2018-06-11T12:28:55.302Z,25.70
2018-06-11T12:29:55.282Z,25.84
2018-06-11T12:30:55.263Z,25.70
2018-06-11T12:31:55.236Z,25.72
2018-06-11T12:32:55.218Z,25.73
2018-06-11T12:33:55.194Z,25.78
2018-06-11T12:34:55.174Z,25.70
2018-06-11T12:35:55.149Z,25.70
2018-06-11T12:36:55.124Z,25.75
2018-06-11T12:37:55.107Z,25.81
2018-06-11T12:38:55.079Z,25.85
2018-06-11T12:39:55.060Z,26.00
2018-06-11T12:40:55.038Z,26.02
2018-06-11T12:41:55.015Z,25.98
2018-06-11T12:42:54.996Z,26.03
2018-06-11T12:43:54.977Z,26.02
2018-06-11T12:44:54.945Z,26.02
2018-06-11T12:45:54.938Z,26.05
2018-06-11T12:46:54.907Z,26.02
2018-06-11T12:47:54.879Z,26.13
2018-06-11T12:48:54.865Z,26.13
2018-06-11T12:49:54.836Z,26.09
2018-06-11T12:50:54.819Z,26.09
2018-06-11T12:51:54.801Z,25.87